sensor_id;sensor_type;location;lat;lon;timestamp;temperature;humidity
59923;DHT22;45778;51.142;3.732;2023-12-14T00:01:45;9.60;99.90
59923;DHT22;45778;51.142;3.732;2023-12-14T00:04:12;9.60;99.90
59923;DHT22;45778;51.142;3.732;2023-12-14T00:06:37;9.50;99.90
59923;DHT22;45778;51.142;3.732;2023-12-14T00:09:03;9.40;99.90
59923;DHT22;45778;51.142;3.732;2023-12-14T00:11:29;9.40;99.90
59923;DHT22;45778;51.142;3.732;2023-12-14T00:13:55;9.50;99.90
59923;DHT22;45778;51.142;3.732;2023-12-14T00:16:21;9.50;99.90
59923;DHT22;45778;51.142;3.732;2023-12-14T00:18:46;9.30;99.90
59923;DHT22;45778;51.142;3.732;2023-12-14T00:21:12;9.20;99.90
59923;DHT22;45778;51.142;3.732;2023-12-14T00:23:37;9.00;99.90
59923;DHT22;45778;51.142;3.732;2023-12-14T00:26:03;9.00;99.90
59923;DHT22;45778;51.142;3.732;2023-12-14T00:28:29;8.90;99.90
59923;DHT22;45778;51.142;3.732;2023-12-14T00:30:55;8.90;99.90
59923;DHT22;45778;51.142;3.732;2023-12-14T00:33:20;8.80;99.90
59923;DHT22;45778;51.142;3.732;2023-12-14T00:35:46;8.80;99.90
59923;DHT22;45778;51.142;3.732;2023-12-14T00:38:12;8.80;99.90
59923;DHT22;45778;51.142;3.732;2023-12-14T00:40:38;8.60;99.90
59923;DHT22;45778;51.142;3.732;2023-12-14T00:43:04;8.60;99.90
59923;DHT22;45778;51.142;3.732;2023-12-14T00:45:29;8.60;99.90
59923;DHT22;45778;51.142;3.732;2023-12-14T00:47:55;8.60;99.90
59923;DHT22;45778;51.142;3.732;2023-12-14T00:50:21;8.40;99.90
59923;DHT22;45778;51.142;3.732;2023-12-14T00:52:46;8.40;99.90
59923;DHT22;45778;51.142;3.732;2023-12-14T00:55:12;8.20;99.90
59923;DHT22;45778;51.142;3.732;2023-12-14T00:57:37;8.10;99.90
59923;DHT22;45778;51.142;3.732;2023-12-14T01:00:03;8.20;99.90
59923;DHT22;45778;51.142;3.732;2023-12-14T01:02:32;8.10;99.90
59923;DHT22;45778;51.142;3.732;2023-12-14T01:04:58;8.10;99.90
59923;DHT22;45778;51.142;3.732;2023-12-14T01:07:24;8.10;99.90
59923;DHT22;45778;51.142;3.732;2023-12-14T01:09:52;8.10;99.90
59923;DHT22;45778;51.142;3.732;2023-12-14T01:12:18;8.10;99.90
59923;DHT22;45778;51.142;3.732;2023-12-14T01:14:44;8.00;99.90
59923;DHT22;45778;51.142;3.732;2023-12-14T01:17:09;8.10;99.90
59923;DHT22;45778;51.142;3.732;2023-12-14T01:19:35;8.10;99.90
59923;DHT22;45778;51.142;3.732;2023-12-14T01:22:00;8.10;99.90
59923;DHT22;45778;51.142;3.732;2023-12-14T01:24:26;8.20;99.90
59923;DHT22;45778;51.142;3.732;2023-12-14T01:26:51;8.20;99.90
59923;DHT22;45778;51.142;3.732;2023-12-14T01:29:17;8.10;99.90
59923;DHT22;45778;51.142;3.732;2023-12-14T01:31:43;8.10;99.90
59923;DHT22;45778;51.142;3.732;2023-12-14T01:34:08;8.20;99.90
59923;DHT22;45778;51.142;3.732;2023-12-14T01:36:37;8.10;99.90
59923;DHT22;45778;51.142;3.732;2023-12-14T01:39:02;8.00;99.90
59923;DHT22;45778;51.142;3.732;2023-12-14T01:41:28;7.80;99.90
59923;DHT22;45778;51.142;3.732;2023-12-14T01:43:54;7.80;99.90
59923;DHT22;45778;51.142;3.732;2023-12-14T01:46:19;7.70;99.90
59923;DHT22;45778;51.142;3.732;2023-12-14T01:48:45;7.70;99.90
59923;DHT22;45778;51.142;3.732;2023-12-14T01:51:11;7.90;99.90
59923;DHT22;45778;51.142;3.732;2023-12-14T01:53:36;7.90;99.90
59923;DHT22;45778;51.142;3.732;2023-12-14T01:56:02;7.70;99.90
59923;DHT22;45778;51.142;3.732;2023-12-14T01:58:28;7.70;99.90
59923;DHT22;45778;51.142;3.732;2023-12-14T02:01:00;7.80;99.90
59923;DHT22;45778;51.142;3.732;2023-12-14T02:03:29;7.80;99.90
59923;DHT22;45778;51.142;3.732;2023-12-14T02:05:54;7.80;99.90
59923;DHT22;45778;51.142;3.732;2023-12-14T02:08:21;7.90;99.90
59923;DHT22;45778;51.142;3.732;2023-12-14T02:10:46;7.90;99.90
59923;DHT22;45778;51.142;3.732;2023-12-14T02:13:13;8.00;99.90
59923;DHT22;45778;51.142;3.732;2023-12-14T02:15:42;7.90;99.90
59923;DHT22;45778;51.142;3.732;2023-12-14T02:18:08;7.90;99.90
59923;DHT22;45778;51.142;3.732;2023-12-14T02:20:33;8.00;99.90
59923;DHT22;45778;51.142;3.732;2023-12-14T02:23:02;7.80;99.90
59923;DHT22;45778;51.142;3.732;2023-12-14T02:25:27;7.70;99.90
59923;DHT22;45778;51.142;3.732;2023-12-14T02:27:53;7.70;99.90
59923;DHT22;45778;51.142;3.732;2023-12-14T02:30:19;7.60;99.90
59923;DHT22;45778;51.142;3.732;2023-12-14T02:32:45;7.80;99.90
59923;DHT22;45778;51.142;3.732;2023-12-14T02:35:11;7.60;99.90
59923;DHT22;45778;51.142;3.732;2023-12-14T02:37:36;7.60;99.90
59923;DHT22;45778;51.142;3.732;2023-12-14T02:40:04;7.60;99.90
59923;DHT22;45778;51.142;3.732;2023-12-14T02:42:30;7.40;99.90
59923;DHT22;45778;51.142;3.732;2023-12-14T02:44:56;7.50;99.90
59923;DHT22;45778;51.142;3.732;2023-12-14T02:47:21;7.40;99.90
59923;DHT22;45778;51.142;3.732;2023-12-14T02:49:47;7.40;99.90
59923;DHT22;45778;51.142;3.732;2023-12-14T02:52:13;7.60;99.90
59923;DHT22;45778;51.142;3.732;2023-12-14T02:54:39;7.60;99.90
59923;DHT22;45778;51.142;3.732;2023-12-14T02:57:04;7.60;99.90
59923;DHT22;45778;51.142;3.732;2023-12-14T02:59:30;7.40;99.90
59923;DHT22;45778;51.142;3.732;2023-12-14T03:01:56;7.40;99.90
59923;DHT22;45778;51.142;3.732;2023-12-14T03:04:21;7.60;99.90
59923;DHT22;45778;51.142;3.732;2023-12-14T03:06:47;7.50;99.90
59923;DHT22;45778;51.142;3.732;2023-12-14T03:09:13;7.50;99.90
59923;DHT22;45778;51.142;3.732;2023-12-14T03:11:39;7.60;99.90
59923;DHT22;45778;51.142;3.732;2023-12-14T03:14:04;7.60;99.90
59923;DHT22;45778;51.142;3.732;2023-12-14T03:16:30;7.80;99.90
59923;DHT22;45778;51.142;3.732;2023-12-14T03:18:56;7.90;99.90
59923;DHT22;45778;51.142;3.732;2023-12-14T03:21:22;7.80;99.90
59923;DHT22;45778;51.142;3.732;2023-12-14T03:23:52;7.90;99.90
59923;DHT22;45778;51.142;3.732;2023-12-14T03:26:17;7.60;99.90
59923;DHT22;45778;51.142;3.732;2023-12-14T03:28:43;7.40;99.90
59923;DHT22;45778;51.142;3.732;2023-12-14T03:31:12;7.50;99.90
59923;DHT22;45778;51.142;3.732;2023-12-14T03:33:39;7.60;99.90
59923;DHT22;45778;51.142;3.732;2023-12-14T03:36:05;7.70;99.90
59923;DHT22;45778;51.142;3.732;2023-12-14T03:38:31;7.50;99.90
59923;DHT22;45778;51.142;3.732;2023-12-14T03:40:57;7.60;99.90
59923;DHT22;45778;51.142;3.732;2023-12-14T03:43:23;7.50;99.90
59923;DHT22;45778;51.142;3.732;2023-12-14T03:45:48;7.60;99.90
59923;DHT22;45778;51.142;3.732;2023-12-14T03:48:14;7.70;99.90
59923;DHT22;45778;51.142;3.732;2023-12-14T03:50:40;7.70;99.90
59923;DHT22;45778;51.142;3.732;2023-12-14T03:53:06;7.70;99.90
59923;DHT22;45778;51.142;3.732;2023-12-14T03:55:32;7.70;99.90
59923;DHT22;45778;51.142;3.732;2023-12-14T03:57:58;7.80;99.90
59923;DHT22;45778;51.142;3.732;2023-12-14T04:00:24;7.70;99.90
59923;DHT22;45778;51.142;3.732;2023-12-14T04:02:49;7.60;99.90
59923;DHT22;45778;51.142;3.732;2023-12-14T04:05:15;7.60;99.90
59923;DHT22;45778;51.142;3.732;2023-12-14T04:07:41;7.80;99.90
59923;DHT22;45778;51.142;3.732;2023-12-14T04:10:07;7.80;99.90
59923;DHT22;45778;51.142;3.732;2023-12-14T04:12:34;7.60;99.90
59923;DHT22;45778;51.142;3.732;2023-12-14T04:15:00;7.70;99.90
59923;DHT22;45778;51.142;3.732;2023-12-14T04:17:26;7.90;99.90
59923;DHT22;45778;51.142;3.732;2023-12-14T04:19:51;7.90;99.90
59923;DHT22;45778;51.142;3.732;2023-12-14T04:22:17;7.80;99.90
59923;DHT22;45778;51.142;3.732;2023-12-14T04:24:43;8.00;99.90
59923;DHT22;45778;51.142;3.732;2023-12-14T04:27:08;8.00;99.90
59923;DHT22;45778;51.142;3.732;2023-12-14T04:29:34;8.00;99.90
59923;DHT22;45778;51.142;3.732;2023-12-14T04:32:00;7.90;99.90
59923;DHT22;45778;51.142;3.732;2023-12-14T04:34:25;7.60;99.90
59923;DHT22;45778;51.142;3.732;2023-12-14T04:36:51;7.40;99.90
59923;DHT22;45778;51.142;3.732;2023-12-14T04:39:18;7.50;99.90
59923;DHT22;45778;51.142;3.732;2023-12-14T04:41:44;7.30;99.90
59923;DHT22;45778;51.142;3.732;2023-12-14T04:44:10;7.30;99.90
59923;DHT22;45778;51.142;3.732;2023-12-14T04:46:36;7.30;99.90
59923;DHT22;45778;51.142;3.732;2023-12-14T04:49:02;7.30;99.90
59923;DHT22;45778;51.142;3.732;2023-12-14T04:51:27;7.30;99.90
59923;DHT22;45778;51.142;3.732;2023-12-14T04:53:53;7.20;99.90
59923;DHT22;45778;51.142;3.732;2023-12-14T04:56:19;7.40;99.90
59923;DHT22;45778;51.142;3.732;2023-12-14T04:58:45;7.50;99.90
59923;DHT22;45778;51.142;3.732;2023-12-14T05:01:11;7.50;99.90
59923;DHT22;45778;51.142;3.732;2023-12-14T05:03:37;7.60;99.90
59923;DHT22;45778;51.142;3.732;2023-12-14T05:06:03;7.60;99.90
59923;DHT22;45778;51.142;3.732;2023-12-14T05:08:28;7.80;99.90
59923;DHT22;45778;51.142;3.732;2023-12-14T05:10:54;7.90;99.90
59923;DHT22;45778;51.142;3.732;2023-12-14T05:13:20;7.80;99.90
59923;DHT22;45778;51.142;3.732;2023-12-14T05:15:46;7.70;99.90
59923;DHT22;45778;51.142;3.732;2023-12-14T05:18:11;7.60;99.90
59923;DHT22;45778;51.142;3.732;2023-12-14T05:20:37;7.50;99.90
59923;DHT22;45778;51.142;3.732;2023-12-14T05:23:03;7.50;99.90
59923;DHT22;45778;51.142;3.732;2023-12-14T05:25:29;7.60;99.90
59923;DHT22;45778;51.142;3.732;2023-12-14T05:27:55;7.70;99.90
59923;DHT22;45778;51.142;3.732;2023-12-14T05:30:20;7.60;99.90
59923;DHT22;45778;51.142;3.732;2023-12-14T05:32:46;7.70;99.90
59923;DHT22;45778;51.142;3.732;2023-12-14T05:35:12;7.70;99.90
59923;DHT22;45778;51.142;3.732;2023-12-14T05:37:41;7.90;99.90
59923;DHT22;45778;51.142;3.732;2023-12-14T05:40:09;7.90;99.90
59923;DHT22;45778;51.142;3.732;2023-12-14T05:42:34;7.80;99.90
59923;DHT22;45778;51.142;3.732;2023-12-14T05:45:00;7.80;99.90
59923;DHT22;45778;51.142;3.732;2023-12-14T05:47:27;7.90;99.90
59923;DHT22;45778;51.142;3.732;2023-12-14T05:49:52;7.90;99.90
59923;DHT22;45778;51.142;3.732;2023-12-14T05:52:22;7.80;99.90
59923;DHT22;45778;51.142;3.732;2023-12-14T05:54:48;7.80;99.90
59923;DHT22;45778;51.142;3.732;2023-12-14T05:57:14;7.80;99.90
59923;DHT22;45778;51.142;3.732;2023-12-14T05:59:40;7.90;99.90
59923;DHT22;45778;51.142;3.732;2023-12-14T06:02:06;8.00;99.90
59923;DHT22;45778;51.142;3.732;2023-12-14T06:04:32;8.00;99.90
59923;DHT22;45778;51.142;3.732;2023-12-14T06:06:58;8.00;99.90
59923;DHT22;45778;51.142;3.732;2023-12-14T06:09:24;7.80;99.90
59923;DHT22;45778;51.142;3.732;2023-12-14T06:11:57;7.90;99.90
59923;DHT22;45778;51.142;3.732;2023-12-14T06:14:23;7.90;99.90
59923;DHT22;45778;51.142;3.732;2023-12-14T06:16:48;7.80;99.90
59923;DHT22;45778;51.142;3.732;2023-12-14T06:19:14;7.60;99.90
59923;DHT22;45778;51.142;3.732;2023-12-14T06:21:40;7.80;99.90
59923;DHT22;45778;51.142;3.732;2023-12-14T06:24:06;7.90;99.90
59923;DHT22;45778;51.142;3.732;2023-12-14T06:26:31;7.70;99.90
59923;DHT22;45778;51.142;3.732;2023-12-14T06:28:57;7.50;99.90
59923;DHT22;45778;51.142;3.732;2023-12-14T06:31:23;7.70;99.90
59923;DHT22;45778;51.142;3.732;2023-12-14T06:33:49;7.80;99.90
59923;DHT22;45778;51.142;3.732;2023-12-14T06:36:18;7.70;99.90
59923;DHT22;45778;51.142;3.732;2023-12-14T06:38:44;7.70;99.90
59923;DHT22;45778;51.142;3.732;2023-12-14T06:41:21;7.60;99.90
59923;DHT22;45778;51.142;3.732;2023-12-14T06:43:48;7.60;99.90
59923;DHT22;45778;51.142;3.732;2023-12-14T06:46:14;7.60;99.90
59923;DHT22;45778;51.142;3.732;2023-12-14T06:48:39;7.70;99.90
59923;DHT22;45778;51.142;3.732;2023-12-14T06:51:05;7.90;99.90
59923;DHT22;45778;51.142;3.732;2023-12-14T06:53:31;7.90;99.90
59923;DHT22;45778;51.142;3.732;2023-12-14T06:55:57;7.80;99.90
59923;DHT22;45778;51.142;3.732;2023-12-14T06:58:22;7.80;99.90
59923;DHT22;45778;51.142;3.732;2023-12-14T07:00:48;7.70;99.90
59923;DHT22;45778;51.142;3.732;2023-12-14T07:03:14;7.70;99.90
59923;DHT22;45778;51.142;3.732;2023-12-14T07:05:39;7.70;99.90
59923;DHT22;45778;51.142;3.732;2023-12-14T07:08:05;7.70;99.90
59923;DHT22;45778;51.142;3.732;2023-12-14T07:10:31;7.80;99.90
59923;DHT22;45778;51.142;3.732;2023-12-14T07:12:57;7.70;99.90
59923;DHT22;45778;51.142;3.732;2023-12-14T07:15:24;7.80;99.90
59923;DHT22;45778;51.142;3.732;2023-12-14T07:17:50;7.80;99.90
59923;DHT22;45778;51.142;3.732;2023-12-14T07:20:15;7.80;99.90
59923;DHT22;45778;51.142;3.732;2023-12-14T07:22:41;7.80;99.90
59923;DHT22;45778;51.142;3.732;2023-12-14T07:25:07;7.70;99.90
59923;DHT22;45778;51.142;3.732;2023-12-14T07:27:33;7.70;99.90
59923;DHT22;45778;51.142;3.732;2023-12-14T07:29:59;7.70;99.90
59923;DHT22;45778;51.142;3.732;2023-12-14T07:32:25;7.70;99.90
59923;DHT22;45778;51.142;3.732;2023-12-14T07:34:50;7.60;99.90
59923;DHT22;45778;51.142;3.732;2023-12-14T07:37:16;7.50;99.90
59923;DHT22;45778;51.142;3.732;2023-12-14T07:39:42;7.50;99.90
59923;DHT22;45778;51.142;3.732;2023-12-14T07:42:07;7.50;99.90
59923;DHT22;45778;51.142;3.732;2023-12-14T07:44:33;7.40;99.90
59923;DHT22;45778;51.142;3.732;2023-12-14T07:47:01;7.50;99.90
59923;DHT22;45778;51.142;3.732;2023-12-14T07:49:27;7.60;99.90
59923;DHT22;45778;51.142;3.732;2023-12-14T07:51:53;7.60;99.90
59923;DHT22;45778;51.142;3.732;2023-12-14T07:54:19;7.60;99.90
59923;DHT22;45778;51.142;3.732;2023-12-14T07:56:44;7.50;99.90
59923;DHT22;45778;51.142;3.732;2023-12-14T07:59:11;7.40;99.90
59923;DHT22;45778;51.142;3.732;2023-12-14T08:01:36;7.30;99.90
59923;DHT22;45778;51.142;3.732;2023-12-14T08:04:02;7.40;99.90
59923;DHT22;45778;51.142;3.732;2023-12-14T08:06:29;7.30;99.90
59923;DHT22;45778;51.142;3.732;2023-12-14T08:08:55;7.30;99.90
59923;DHT22;45778;51.142;3.732;2023-12-14T08:11:24;7.50;99.90
59923;DHT22;45778;51.142;3.732;2023-12-14T08:13:49;7.50;99.90
59923;DHT22;45778;51.142;3.732;2023-12-14T08:16:15;7.60;99.90
59923;DHT22;45778;51.142;3.732;2023-12-14T08:18:44;7.60;99.90
59923;DHT22;45778;51.142;3.732;2023-12-14T08:21:14;7.60;99.90
59923;DHT22;45778;51.142;3.732;2023-12-14T08:23:39;7.60;99.90
59923;DHT22;45778;51.142;3.732;2023-12-14T08:26:06;7.60;99.90
59923;DHT22;45778;51.142;3.732;2023-12-14T08:28:33;7.50;99.90
59923;DHT22;45778;51.142;3.732;2023-12-14T08:31:00;7.50;99.90
59923;DHT22;45778;51.142;3.732;2023-12-14T08:33:29;7.50;99.90
59923;DHT22;45778;51.142;3.732;2023-12-14T08:35:55;7.50;99.90
59923;DHT22;45778;51.142;3.732;2023-12-14T08:38:21;7.50;99.90
59923;DHT22;45778;51.142;3.732;2023-12-14T08:40:47;7.40;99.90
59923;DHT22;45778;51.142;3.732;2023-12-14T08:43:13;7.30;99.90
59923;DHT22;45778;51.142;3.732;2023-12-14T08:45:39;7.40;99.90
59923;DHT22;45778;51.142;3.732;2023-12-14T08:48:05;7.40;99.90
59923;DHT22;45778;51.142;3.732;2023-12-14T08:50:30;7.40;99.90
59923;DHT22;45778;51.142;3.732;2023-12-14T08:52:56;7.30;99.90
59923;DHT22;45778;51.142;3.732;2023-12-14T08:55:24;7.20;99.90
59923;DHT22;45778;51.142;3.732;2023-12-14T08:57:50;7.20;99.90
59923;DHT22;45778;51.142;3.732;2023-12-14T09:00:16;7.20;99.90
59923;DHT22;45778;51.142;3.732;2023-12-14T09:02:43;7.30;99.90
59923;DHT22;45778;51.142;3.732;2023-12-14T09:05:12;7.40;99.90
59923;DHT22;45778;51.142;3.732;2023-12-14T09:07:37;7.40;99.90
59923;DHT22;45778;51.142;3.732;2023-12-14T09:10:04;7.40;99.90
59923;DHT22;45778;51.142;3.732;2023-12-14T09:12:32;7.50;99.90
59923;DHT22;45778;51.142;3.732;2023-12-14T09:14:58;7.70;99.90
59923;DHT22;45778;51.142;3.732;2023-12-14T09:17:24;7.80;99.90
59923;DHT22;45778;51.142;3.732;2023-12-14T09:19:51;8.00;99.90
59923;DHT22;45778;51.142;3.732;2023-12-14T09:22:19;8.10;99.90
59923;DHT22;45778;51.142;3.732;2023-12-14T09:24:45;8.00;99.90
59923;DHT22;45778;51.142;3.732;2023-12-14T09:27:11;8.00;99.90
59923;DHT22;45778;51.142;3.732;2023-12-14T09:29:37;8.00;99.90
59923;DHT22;45778;51.142;3.732;2023-12-14T09:32:03;8.10;99.90
59923;DHT22;45778;51.142;3.732;2023-12-14T09:34:28;8.20;99.90
59923;DHT22;45778;51.142;3.732;2023-12-14T09:36:54;8.20;99.90
59923;DHT22;45778;51.142;3.732;2023-12-14T09:39:20;8.20;99.90
59923;DHT22;45778;51.142;3.732;2023-12-14T09:41:47;8.30;99.90
59923;DHT22;45778;51.142;3.732;2023-12-14T09:44:13;8.30;99.90
59923;DHT22;45778;51.142;3.732;2023-12-14T09:46:40;8.10;99.90
59923;DHT22;45778;51.142;3.732;2023-12-14T09:49:12;8.00;99.90
59923;DHT22;45778;51.142;3.732;2023-12-14T09:51:39;7.90;99.90
59923;DHT22;45778;51.142;3.732;2023-12-14T09:54:06;7.90;99.90
59923;DHT22;45778;51.142;3.732;2023-12-14T09:56:31;7.80;99.90
59923;DHT22;45778;51.142;3.732;2023-12-14T09:58:57;7.60;99.90
59923;DHT22;45778;51.142;3.732;2023-12-14T10:01:24;7.50;99.90
59923;DHT22;45778;51.142;3.732;2023-12-14T10:03:50;7.50;99.90
59923;DHT22;45778;51.142;3.732;2023-12-14T10:06:18;7.50;99.90
59923;DHT22;45778;51.142;3.732;2023-12-14T10:08:54;7.50;99.90
59923;DHT22;45778;51.142;3.732;2023-12-14T10:11:21;7.50;99.90
59923;DHT22;45778;51.142;3.732;2023-12-14T10:13:47;7.50;99.90
59923;DHT22;45778;51.142;3.732;2023-12-14T10:16:21;7.50;99.90
59923;DHT22;45778;51.142;3.732;2023-12-14T10:18:51;7.40;99.90
59923;DHT22;45778;51.142;3.732;2023-12-14T10:21:17;7.40;99.90
59923;DHT22;45778;51.142;3.732;2023-12-14T10:23:45;7.40;99.90
59923;DHT22;45778;51.142;3.732;2023-12-14T10:26:12;7.40;99.90
59923;DHT22;45778;51.142;3.732;2023-12-14T10:28:40;7.40;99.90
59923;DHT22;45778;51.142;3.732;2023-12-14T10:31:06;7.40;99.90
59923;DHT22;45778;51.142;3.732;2023-12-14T10:33:32;7.50;99.90
59923;DHT22;45778;51.142;3.732;2023-12-14T10:35:58;7.50;99.90
59923;DHT22;45778;51.142;3.732;2023-12-14T10:38:24;7.50;99.90
59923;DHT22;45778;51.142;3.732;2023-12-14T10:40:51;7.60;99.90
59923;DHT22;45778;51.142;3.732;2023-12-14T10:43:19;7.70;99.90
59923;DHT22;45778;51.142;3.732;2023-12-14T10:45:46;7.90;99.90
59923;DHT22;45778;51.142;3.732;2023-12-14T10:48:17;7.90;99.90
59923;DHT22;45778;51.142;3.732;2023-12-14T10:50:46;7.80;99.90
59923;DHT22;45778;51.142;3.732;2023-12-14T10:53:14;7.80;99.90
59923;DHT22;45778;51.142;3.732;2023-12-14T10:55:44;7.80;99.90
59923;DHT22;45778;51.142;3.732;2023-12-14T10:58:11;7.80;99.90
59923;DHT22;45778;51.142;3.732;2023-12-14T11:00:37;7.70;99.90
59923;DHT22;45778;51.142;3.732;2023-12-14T11:03:06;7.80;99.90
59923;DHT22;45778;51.142;3.732;2023-12-14T11:05:33;7.90;99.90
59923;DHT22;45778;51.142;3.732;2023-12-14T11:08:03;7.80;99.90
59923;DHT22;45778;51.142;3.732;2023-12-14T11:13:09;7.90;99.90
59923;DHT22;45778;51.142;3.732;2023-12-14T11:15:50;7.90;99.90
59923;DHT22;45778;51.142;3.732;2023-12-14T11:18:21;7.90;99.90
59923;DHT22;45778;51.142;3.732;2023-12-14T11:20:59;7.90;99.90
59923;DHT22;45778;51.142;3.732;2023-12-14T11:23:27;8.00;99.90
59923;DHT22;45778;51.142;3.732;2023-12-14T11:26:05;8.20;99.90
59923;DHT22;45778;51.142;3.732;2023-12-14T11:28:32;8.20;99.90
59923;DHT22;45778;51.142;3.732;2023-12-14T11:31:01;8.30;99.90
59923;DHT22;45778;51.142;3.732;2023-12-14T11:33:28;8.30;99.90
59923;DHT22;45778;51.142;3.732;2023-12-14T11:35:54;8.50;99.90
59923;DHT22;45778;51.142;3.732;2023-12-14T11:38:23;8.30;99.90
59923;DHT22;45778;51.142;3.732;2023-12-14T11:40:50;8.40;99.90
59923;DHT22;45778;51.142;3.732;2023-12-14T11:43:15;8.50;99.90
59923;DHT22;45778;51.142;3.732;2023-12-14T11:45:42;8.50;99.90
59923;DHT22;45778;51.142;3.732;2023-12-14T11:48:12;8.60;99.90
59923;DHT22;45778;51.142;3.732;2023-12-14T11:50:39;8.70;99.90
59923;DHT22;45778;51.142;3.732;2023-12-14T11:53:07;8.60;99.90
59923;DHT22;45778;51.142;3.732;2023-12-14T11:55:37;8.60;99.90
59923;DHT22;45778;51.142;3.732;2023-12-14T11:58:04;8.70;99.90
59923;DHT22;45778;51.142;3.732;2023-12-14T12:00:30;8.50;99.90
59923;DHT22;45778;51.142;3.732;2023-12-14T12:05:43;8.20;99.90
59923;DHT22;45778;51.142;3.732;2023-12-14T12:08:13;8.20;99.90
59923;DHT22;45778;51.142;3.732;2023-12-14T12:10:40;8.10;99.90
59923;DHT22;45778;51.142;3.732;2023-12-14T12:13:08;8.20;99.90
59923;DHT22;45778;51.142;3.732;2023-12-14T12:15:39;8.20;99.90
59923;DHT22;45778;51.142;3.732;2023-12-14T12:18:15;8.30;99.90
59923;DHT22;45778;51.142;3.732;2023-12-14T12:20:42;8.40;99.90
59923;DHT22;45778;51.142;3.732;2023-12-14T12:23:10;8.50;99.90
59923;DHT22;45778;51.142;3.732;2023-12-14T12:25:38;8.60;99.90
59923;DHT22;45778;51.142;3.732;2023-12-14T12:28:04;8.60;99.90
59923;DHT22;45778;51.142;3.732;2023-12-14T12:30:30;8.70;99.90
59923;DHT22;45778;51.142;3.732;2023-12-14T12:32:56;8.60;99.90
59923;DHT22;45778;51.142;3.732;2023-12-14T12:35:26;8.60;99.90
59923;DHT22;45778;51.142;3.732;2023-12-14T12:37:52;8.60;99.90
59923;DHT22;45778;51.142;3.732;2023-12-14T12:40:22;8.70;99.90
59923;DHT22;45778;51.142;3.732;2023-12-14T12:42:48;8.80;99.90
59923;DHT22;45778;51.142;3.732;2023-12-14T12:45:15;8.90;99.90
59923;DHT22;45778;51.142;3.732;2023-12-14T12:47:44;8.90;99.90
59923;DHT22;45778;51.142;3.732;2023-12-14T12:50:12;8.90;99.90
59923;DHT22;45778;51.142;3.732;2023-12-14T12:52:41;8.80;99.90
59923;DHT22;45778;51.142;3.732;2023-12-14T12:55:08;8.80;99.90
59923;DHT22;45778;51.142;3.732;2023-12-14T12:57:35;8.70;99.90
59923;DHT22;45778;51.142;3.732;2023-12-14T13:00:01;8.60;99.90
59923;DHT22;45778;51.142;3.732;2023-12-14T13:02:27;8.80;99.90
59923;DHT22;45778;51.142;3.732;2023-12-14T13:04:52;9.00;99.90
59923;DHT22;45778;51.142;3.732;2023-12-14T13:07:19;9.10;99.90
59923;DHT22;45778;51.142;3.732;2023-12-14T13:09:44;9.20;99.90
59923;DHT22;45778;51.142;3.732;2023-12-14T13:12:10;9.40;99.90
59923;DHT22;45778;51.142;3.732;2023-12-14T13:14:36;9.40;99.90
59923;DHT22;45778;51.142;3.732;2023-12-14T13:17:02;9.40;99.90
59923;DHT22;45778;51.142;3.732;2023-12-14T13:19:28;9.50;99.90
59923;DHT22;45778;51.142;3.732;2023-12-14T13:21:54;9.50;99.90
59923;DHT22;45778;51.142;3.732;2023-12-14T13:24:22;9.40;99.90
59923;DHT22;45778;51.142;3.732;2023-12-14T13:26:48;9.30;99.90
59923;DHT22;45778;51.142;3.732;2023-12-14T13:29:14;9.50;99.90
59923;DHT22;45778;51.142;3.732;2023-12-14T13:31:39;9.50;99.90
59923;DHT22;45778;51.142;3.732;2023-12-14T13:34:05;9.40;99.90
59923;DHT22;45778;51.142;3.732;2023-12-14T13:36:31;9.30;99.90
59923;DHT22;45778;51.142;3.732;2023-12-14T13:38:57;9.10;99.90
59923;DHT22;45778;51.142;3.732;2023-12-14T13:41:23;9.00;99.90
59923;DHT22;45778;51.142;3.732;2023-12-14T13:43:49;9.20;99.90
59923;DHT22;45778;51.142;3.732;2023-12-14T13:46:17;9.10;99.90
59923;DHT22;45778;51.142;3.732;2023-12-14T13:48:43;8.90;99.90
59923;DHT22;45778;51.142;3.732;2023-12-14T13:51:08;8.90;99.90
59923;DHT22;45778;51.142;3.732;2023-12-14T13:53:37;8.90;99.90
59923;DHT22;45778;51.142;3.732;2023-12-14T13:56:03;9.10;99.90
59923;DHT22;45778;51.142;3.732;2023-12-14T13:58:32;9.20;99.90
59923;DHT22;45778;51.142;3.732;2023-12-14T14:01:05;9.10;99.90
59923;DHT22;45778;51.142;3.732;2023-12-14T14:03:33;8.90;99.90
59923;DHT22;45778;51.142;3.732;2023-12-14T14:05:59;9.20;99.90
59923;DHT22;45778;51.142;3.732;2023-12-14T14:08:25;9.10;99.90
59923;DHT22;45778;51.142;3.732;2023-12-14T14:10:51;9.10;99.90
59923;DHT22;45778;51.142;3.732;2023-12-14T14:13:16;9.10;99.90
59923;DHT22;45778;51.142;3.732;2023-12-14T14:15:42;9.00;99.90
59923;DHT22;45778;51.142;3.732;2023-12-14T14:18:08;9.10;99.90
59923;DHT22;45778;51.142;3.732;2023-12-14T14:20:33;9.00;99.90
59923;DHT22;45778;51.142;3.732;2023-12-14T14:23:02;9.00;99.90
59923;DHT22;45778;51.142;3.732;2023-12-14T14:25:33;8.90;99.90
59923;DHT22;45778;51.142;3.732;2023-12-14T14:28:02;8.80;99.90
59923;DHT22;45778;51.142;3.732;2023-12-14T14:30:28;8.80;99.90
59923;DHT22;45778;51.142;3.732;2023-12-14T14:32:56;8.80;99.90
59923;DHT22;45778;51.142;3.732;2023-12-14T14:35:22;8.90;99.90
59923;DHT22;45778;51.142;3.732;2023-12-14T14:37:51;8.80;99.90
59923;DHT22;45778;51.142;3.732;2023-12-14T14:40:17;8.90;99.90
59923;DHT22;45778;51.142;3.732;2023-12-14T14:42:43;8.80;99.90
59923;DHT22;45778;51.142;3.732;2023-12-14T14:45:11;8.80;99.90
59923;DHT22;45778;51.142;3.732;2023-12-14T14:47:40;8.80;99.90
59923;DHT22;45778;51.142;3.732;2023-12-14T14:50:09;8.70;99.90
59923;DHT22;45778;51.142;3.732;2023-12-14T14:52:38;8.70;99.90
59923;DHT22;45778;51.142;3.732;2023-12-14T14:55:04;8.60;99.90
59923;DHT22;45778;51.142;3.732;2023-12-14T14:57:30;8.70;99.90
59923;DHT22;45778;51.142;3.732;2023-12-14T14:59:57;8.60;99.90
59923;DHT22;45778;51.142;3.732;2023-12-14T15:02:23;8.60;99.90
59923;DHT22;45778;51.142;3.732;2023-12-14T15:04:50;8.70;99.90
59923;DHT22;45778;51.142;3.732;2023-12-14T15:07:16;8.60;99.90
59923;DHT22;45778;51.142;3.732;2023-12-14T15:09:41;8.60;99.90
59923;DHT22;45778;51.142;3.732;2023-12-14T15:12:07;8.50;99.90
59923;DHT22;45778;51.142;3.732;2023-12-14T15:14:33;8.30;99.90
59923;DHT22;45778;51.142;3.732;2023-12-14T15:16:59;8.20;99.90
59923;DHT22;45778;51.142;3.732;2023-12-14T15:19:24;8.10;99.90
59923;DHT22;45778;51.142;3.732;2023-12-14T15:21:50;7.90;99.90
59923;DHT22;45778;51.142;3.732;2023-12-14T15:24:16;7.90;99.90
59923;DHT22;45778;51.142;3.732;2023-12-14T15:26:42;7.90;99.90
59923;DHT22;45778;51.142;3.732;2023-12-14T15:29:07;7.90;99.90
59923;DHT22;45778;51.142;3.732;2023-12-14T15:31:34;7.90;99.90
59923;DHT22;45778;51.142;3.732;2023-12-14T15:33:59;7.80;99.90
59923;DHT22;45778;51.142;3.732;2023-12-14T15:36:27;7.90;99.90
59923;DHT22;45778;51.142;3.732;2023-12-14T15:38:53;8.00;99.90
59923;DHT22;45778;51.142;3.732;2023-12-14T15:41:21;7.90;99.90
59923;DHT22;45778;51.142;3.732;2023-12-14T15:43:47;7.80;99.90
59923;DHT22;45778;51.142;3.732;2023-12-14T15:46:12;7.80;99.90